createdAt,value
2018-11-27T00:01:02.280Z,77.60
2018-11-27T00:03:37.382Z,78.00
2018-11-27T00:06:07.306Z,77.80
2018-11-27T00:08:37.307Z,78.40
2018-11-27T00:11:07.152Z,78.70
2018-11-27T00:13:37.026Z,78.70
2018-11-27T00:16:06.964Z,78.80
2018-11-27T00:18:36.926Z,79.10
2018-11-27T00:21:07.048Z,79.10
2018-11-27T00:23:36.936Z,79.40
2018-11-27T00:26:07.177Z,79.40
2018-11-27T00:28:37.043Z,80.10
2018-11-27T00:31:07.349Z,79.90
2018-11-27T00:33:37.184Z,79.80
2018-11-27T00:36:07.081Z,80.10
2018-11-27T00:38:36.980Z,80.20
2018-11-27T00:41:06.869Z,80.30
2018-11-27T00:43:36.754Z,80.20
2018-11-27T00:46:13.838Z,79.70
2018-11-27T00:48:43.693Z,79.90
2018-11-27T00:51:13.546Z,80.30
2018-11-27T00:53:43.437Z,80.20
2018-11-27T00:56:13.317Z,80.20
2018-11-27T00:58:43.195Z,80.40
2018-11-27T01:01:13.060Z,79.40
2018-11-27T01:03:42.925Z,79.20
2018-11-27T01:06:12.777Z,79.80
2018-11-27T01:08:42.652Z,80.10
2018-11-27T01:11:12.604Z,80.70
2018-11-27T01:13:42.457Z,80.90
2018-11-27T01:16:12.381Z,80.70
2018-11-27T01:18:42.343Z,80.90
2018-11-27T01:21:12.166Z,80.70
2018-11-27T01:23:42.071Z,81.00
2018-11-27T01:26:11.917Z,80.50
2018-11-27T01:28:41.757Z,80.20
2018-11-27T01:31:11.694Z,79.70
2018-11-27T01:33:41.522Z,79.50
2018-11-27T01:36:11.438Z,80.00
2018-11-27T01:38:41.289Z,79.80
2018-11-27T01:41:11.170Z,79.80
2018-11-27T01:43:41.044Z,79.50
2018-11-27T01:46:10.909Z,79.50
2018-11-27T01:48:40.823Z,79.80
2018-11-27T01:51:10.668Z,79.70
2018-11-27T01:53:40.547Z,78.40
2018-11-27T01:56:10.412Z,78.70
2018-11-27T01:58:43.696Z,78.80
2018-11-27T02:01:13.651Z,77.90
2018-11-27T02:03:43.581Z,78.20
2018-11-27T02:06:13.491Z,78.00
2018-11-27T02:08:43.529Z,78.00
2018-11-27T02:11:13.342Z,78.60
2018-11-27T02:13:43.240Z,78.60
2018-11-27T02:16:13.054Z,78.50
2018-11-27T02:18:42.921Z,78.60
2018-11-27T02:21:12.804Z,78.70
2018-11-27T02:23:42.686Z,79.30
2018-11-27T02:26:12.600Z,78.70
2018-11-27T02:28:42.539Z,79.30
2018-11-27T02:31:12.449Z,79.20
2018-11-27T02:33:42.362Z,79.30
2018-11-27T02:36:12.382Z,79.40
2018-11-27T02:38:42.274Z,79.30
2018-11-27T02:41:12.204Z,79.20
2018-11-27T02:43:42.072Z,79.20
2018-11-27T02:46:11.951Z,79.00
2018-11-27T02:48:41.835Z,79.40
2018-11-27T02:51:11.689Z,79.80
2018-11-27T02:53:41.681Z,79.50
2018-11-27T02:56:11.571Z,79.90
2018-11-27T02:58:41.436Z,80.20
2018-11-27T03:01:11.342Z,79.80
2018-11-27T03:03:41.254Z,80.00
2018-11-27T03:06:11.072Z,80.40
2018-11-27T03:08:40.959Z,80.50
2018-11-27T03:11:10.920Z,80.50
2018-11-27T03:13:40.777Z,80.00
2018-11-27T03:16:10.642Z,80.20
2018-11-27T03:18:41.562Z,80.60
2018-11-27T03:21:11.535Z,80.60
2018-11-27T03:23:41.418Z,81.40
2018-11-27T03:26:11.362Z,80.90
2018-11-27T03:28:41.272Z,80.60
2018-11-27T03:31:11.290Z,80.90
2018-11-27T03:33:41.169Z,81.10
2018-11-27T03:36:11.316Z,80.90
2018-11-27T03:38:41.335Z,81.60
2018-11-27T03:41:11.135Z,81.80
2018-11-27T03:43:41.026Z,82.10
2018-11-27T03:46:10.894Z,83.20
2018-11-27T03:48:40.785Z,82.20
2018-11-27T03:51:10.636Z,82.90
2018-11-27T03:53:40.568Z,82.30
2018-11-27T03:56:10.451Z,82.50
2018-11-27T03:58:40.409Z,82.20
2018-11-27T04:01:10.357Z,82.40
2018-11-27T04:03:40.222Z,82.20
2018-11-27T04:06:10.116Z,82.50
2018-11-27T04:08:40.046Z,82.50
2018-11-27T04:11:09.936Z,82.70
2018-11-27T04:13:39.795Z,82.70
2018-11-27T04:16:09.693Z,83.00
2018-11-27T04:18:39.575Z,83.20
2018-11-27T04:21:09.430Z,84.10
2018-11-27T04:23:39.398Z,83.60
2018-11-27T04:26:09.253Z,84.00
2018-11-27T04:28:39.114Z,83.60
2018-11-27T04:31:09.043Z,84.00
2018-11-27T04:33:38.920Z,84.00
2018-11-27T04:36:08.851Z,84.10
2018-11-27T04:38:38.814Z,84.30
2018-11-27T04:41:08.730Z,84.20
2018-11-27T04:43:38.633Z,83.90
2018-11-27T04:46:08.529Z,84.10
2018-11-27T04:48:38.518Z,84.30
2018-11-27T04:51:08.507Z,84.20
2018-11-27T04:53:38.397Z,84.10
2018-11-27T04:56:08.310Z,84.30
2018-11-27T04:58:38.218Z,84.40
2018-11-27T05:01:08.175Z,83.90
2018-11-27T05:03:38.125Z,84.60
2018-11-27T05:06:08.030Z,84.30
2018-11-27T05:08:37.963Z,84.40
2018-11-27T05:11:07.937Z,84.40
2018-11-27T05:13:37.887Z,84.50
2018-11-27T05:16:07.890Z,84.70
2018-11-27T05:18:37.810Z,85.00
2018-11-27T05:21:07.870Z,84.60
2018-11-27T05:23:37.792Z,84.80
2018-11-27T05:26:07.702Z,85.10
2018-11-27T05:28:37.696Z,85.50
2018-11-27T05:31:07.699Z,85.80
2018-11-27T05:33:37.591Z,85.80
2018-11-27T05:36:07.552Z,86.20
2018-11-27T05:38:37.522Z,86.10
2018-11-27T05:41:07.403Z,86.70
2018-11-27T05:43:37.401Z,87.00
2018-11-27T05:46:07.358Z,87.10
2018-11-27T05:48:37.248Z,86.30
2018-11-27T05:51:07.664Z,86.20
2018-11-27T05:53:37.613Z,86.30
2018-11-27T05:56:07.511Z,86.20
2018-11-27T05:58:37.422Z,86.10
2018-11-27T06:01:07.468Z,85.80
2018-11-27T06:03:37.338Z,85.00
2018-11-27T06:06:07.253Z,84.60
2018-11-27T06:08:37.149Z,84.50
2018-11-27T06:11:07.624Z,84.50
2018-11-27T06:13:37.481Z,85.10
2018-11-27T06:16:08.616Z,84.60
2018-11-27T06:18:38.487Z,84.20
2018-11-27T06:21:08.466Z,84.80
2018-11-27T06:23:38.475Z,85.00
2018-11-27T06:26:08.424Z,85.90
2018-11-27T06:28:38.333Z,84.90
2018-11-27T06:31:08.280Z,84.30
2018-11-27T06:33:38.285Z,84.20
2018-11-27T06:36:09.046Z,84.10
2018-11-27T06:38:39.008Z,84.20
2018-11-27T06:41:08.963Z,83.70
2018-11-27T06:43:38.979Z,82.90
2018-11-27T06:46:08.849Z,82.30
2018-11-27T06:48:38.888Z,82.30
2018-11-27T06:51:09.594Z,81.80
2018-11-27T06:53:39.545Z,82.00
2018-11-27T06:56:10.573Z,82.30
2018-11-27T06:58:40.481Z,82.40
2018-11-27T07:01:10.378Z,82.40
2018-11-27T07:03:40.326Z,82.40
2018-11-27T07:06:10.201Z,81.50
2018-11-27T07:08:40.232Z,81.40
2018-11-27T07:11:10.278Z,81.50
2018-11-27T07:13:40.301Z,81.00
2018-11-27T07:16:10.328Z,81.00
2018-11-27T07:18:40.314Z,81.10
2018-11-27T07:21:10.298Z,81.40
2018-11-27T07:23:40.301Z,80.60
2018-11-27T07:26:10.301Z,80.60
2018-11-27T07:28:40.206Z,80.90
2018-11-27T07:31:10.198Z,80.10
2018-11-27T07:33:40.134Z,79.00
2018-11-27T07:36:11.170Z,78.70
2018-11-27T07:38:41.540Z,77.80
2018-11-27T07:41:11.424Z,77.90
2018-11-27T07:43:43.199Z,77.50
2018-11-27T07:46:13.111Z,77.10
2018-11-27T07:48:42.993Z,77.10
2018-11-27T07:51:12.963Z,77.40
2018-11-27T07:53:42.955Z,76.70
2018-11-27T07:56:12.945Z,76.90
2018-11-27T07:58:43.389Z,76.80
2018-11-27T08:01:13.246Z,76.20
2018-11-27T08:03:43.197Z,75.70
2018-11-27T08:06:13.090Z,75.60
2018-11-27T08:08:43.001Z,75.30
2018-11-27T08:11:12.964Z,75.20
2018-11-27T08:13:42.866Z,74.50
2018-11-27T08:16:12.851Z,74.30
2018-11-27T08:18:43.773Z,73.80
2018-11-27T08:21:14.750Z,73.30
2018-11-27T08:23:44.682Z,73.50
2018-11-27T08:26:14.655Z,72.70
2018-11-27T08:28:44.536Z,72.20
2018-11-27T08:31:14.485Z,71.80
2018-11-27T08:33:44.363Z,71.50
2018-11-27T08:36:14.335Z,70.40
2018-11-27T08:38:44.265Z,70.60
2018-11-27T08:41:14.179Z,69.90
2018-11-27T08:43:44.069Z,69.50
2018-11-27T08:46:14.055Z,70.50
2018-11-27T08:48:44.180Z,70.60
2018-11-27T08:51:14.294Z,70.10
2018-11-27T08:53:45.211Z,70.30
2018-11-27T08:56:15.129Z,70.60
2018-11-27T08:58:45.009Z,70.90
2018-11-27T09:01:14.992Z,70.90
2018-11-27T09:03:46.516Z,70.20
2018-11-27T09:06:14.911Z,70.60
2018-11-27T09:08:44.819Z,70.10
2018-11-27T09:11:14.768Z,70.70
2018-11-27T09:13:44.689Z,71.00
2018-11-27T09:16:14.694Z,71.30
2018-11-27T09:18:45.004Z,71.50
2018-11-27T09:21:14.939Z,70.80
2018-11-27T09:23:44.871Z,71.00
2018-11-27T09:26:14.844Z,71.00
2018-11-27T09:28:44.785Z,71.00
2018-11-27T09:31:14.738Z,70.90
2018-11-27T09:33:44.661Z,70.80
2018-11-27T09:36:14.585Z,71.00
2018-11-27T09:38:44.545Z,71.40
2018-11-27T09:41:14.473Z,70.90
2018-11-27T09:43:44.383Z,70.10
2018-11-27T09:46:14.354Z,69.70
2018-11-27T09:48:44.627Z,69.60
2018-11-27T09:51:14.616Z,70.10
2018-11-27T09:53:44.606Z,70.50
2018-11-27T09:56:14.629Z,70.20
2018-11-27T09:58:44.541Z,70.50
2018-11-27T10:01:14.609Z,69.80
2018-11-27T10:03:44.549Z,69.50
2018-11-27T10:06:14.541Z,70.10
2018-11-27T10:08:44.442Z,69.90
2018-11-27T10:11:15.634Z,69.20
2018-11-27T10:15:12.712Z,68.90
2018-11-27T10:17:42.901Z,68.80
2018-11-27T10:20:16.855Z,68.40
2018-11-27T10:22:46.918Z,68.40
2018-11-27T10:25:16.835Z,68.30
2018-11-27T10:27:47.837Z,67.90
2018-11-27T10:30:20.328Z,68.30
2018-11-27T10:32:51.657Z,68.30
2018-11-27T10:35:25.270Z,68.00
2018-11-27T10:37:56.306Z,67.90
2018-11-27T10:40:26.192Z,67.90
2018-11-27T10:42:56.125Z,68.20
2018-11-27T10:45:26.165Z,67.90
2018-11-27T10:47:56.977Z,67.50
2018-11-27T10:50:26.888Z,68.30
2018-11-27T10:52:57.204Z,66.70
2018-11-27T10:55:27.467Z,66.70
2018-11-27T10:57:57.534Z,66.30
2018-11-27T11:00:33.582Z,66.20
2018-11-27T11:03:24.955Z,66.50
2018-11-27T11:05:56.195Z,67.10
2018-11-27T11:08:26.280Z,66.40
2018-11-27T11:10:56.354Z,66.20
2018-11-27T11:13:26.258Z,65.80
2018-11-27T11:15:56.187Z,65.80
2018-11-27T11:18:26.167Z,65.90
2018-11-27T11:20:56.090Z,66.00
2018-11-27T11:23:26.073Z,65.40
2018-11-27T11:25:56.553Z,65.20
2018-11-27T11:28:29.157Z,65.40
2018-11-27T11:30:59.130Z,65.70
2018-11-27T11:33:28.992Z,65.30
2018-11-27T11:35:59.048Z,65.00
2018-11-27T11:38:29.124Z,65.30
2018-11-27T11:41:00.241Z,65.00
2018-11-27T11:43:30.307Z,65.30
2018-11-27T11:46:00.263Z,66.10
2018-11-27T11:48:30.244Z,65.70
2018-11-27T11:51:00.153Z,65.50
2018-11-27T11:53:30.130Z,65.90
2018-11-27T11:56:00.107Z,66.10
2018-11-27T11:58:30.172Z,65.30
2018-11-27T12:01:00.114Z,65.80
2018-11-27T12:03:30.245Z,65.90
2018-11-27T12:06:00.286Z,65.30
2018-11-27T12:08:30.295Z,65.20
2018-11-27T12:11:00.394Z,64.60
2018-11-27T12:13:30.502Z,64.40
2018-11-27T12:16:02.477Z,65.80
2018-11-27T12:18:32.691Z,64.80
2018-11-27T12:22:05.993Z,64.50
2018-11-27T12:24:37.133Z,64.20
2018-11-27T12:27:07.454Z,64.50
2018-11-27T12:29:37.422Z,64.20
2018-11-27T12:32:07.382Z,64.70
2018-11-27T12:34:37.367Z,64.60
2018-11-27T12:37:07.313Z,64.60
2018-11-27T12:39:37.287Z,64.80
2018-11-27T12:42:07.187Z,65.10
2018-11-27T12:44:40.131Z,64.90
2018-11-27T12:47:10.071Z,65.90
2018-11-27T12:49:40.792Z,64.60
2018-11-27T12:52:11.132Z,64.70
2018-11-27T12:54:41.176Z,64.70
2018-11-27T12:57:11.414Z,65.20
2018-11-27T12:59:41.278Z,65.40
2018-11-27T13:02:11.168Z,65.40
2018-11-27T13:04:41.412Z,66.10
2018-11-27T13:07:12.346Z,66.30
2018-11-27T13:09:42.299Z,65.20
2018-11-27T13:12:12.201Z,65.20
2018-11-27T13:14:42.092Z,65.70
2018-11-27T13:17:11.988Z,66.00
2018-11-27T13:19:42.973Z,66.10
2018-11-27T13:22:12.882Z,65.80
2018-11-27T13:24:42.810Z,65.30
2018-11-27T13:27:12.716Z,65.20
2018-11-27T13:29:42.588Z,65.20
2018-11-27T13:32:12.482Z,65.50
2018-11-27T13:34:47.576Z,65.70
2018-11-27T13:37:12.433Z,66.20
2018-11-27T13:39:42.357Z,66.60
2018-11-27T13:42:12.341Z,66.40
2018-11-27T13:44:42.225Z,65.80
2018-11-27T13:47:13.506Z,65.90
2018-11-27T13:49:43.642Z,66.40
2018-11-27T13:52:13.505Z,65.90
2018-11-27T13:54:43.541Z,66.30
2018-11-27T13:57:13.608Z,66.00
2018-11-27T13:59:43.507Z,66.40
2018-11-27T14:02:13.437Z,66.70
2018-11-27T14:04:44.400Z,66.40
2018-11-27T14:07:14.284Z,65.90
2018-11-27T14:09:45.249Z,66.20
2018-11-27T14:12:14.206Z,66.50
2018-11-27T14:14:44.154Z,66.30
2018-11-27T14:17:14.070Z,66.50
2018-11-27T14:19:43.971Z,66.70
2018-11-27T14:22:14.025Z,66.20
2018-11-27T14:24:43.911Z,66.40
2018-11-27T14:27:14.939Z,65.90
2018-11-27T14:29:44.834Z,66.70
2018-11-27T14:32:14.705Z,67.30
2018-11-27T14:34:44.692Z,68.50
2018-11-27T14:37:14.699Z,67.60
2018-11-27T14:39:44.594Z,68.50
2018-11-27T14:42:14.481Z,69.20
2018-11-27T14:44:44.427Z,68.80
2018-11-27T14:47:14.306Z,68.70
2018-11-27T14:49:44.232Z,68.30
2018-11-27T14:52:14.124Z,69.60
2018-11-27T14:54:44.103Z,70.60
2018-11-27T14:57:14.166Z,70.60
2018-11-27T14:59:44.092Z,70.30
2018-11-27T15:02:14.008Z,72.00
2018-11-27T15:04:44.980Z,70.40
2018-11-27T15:07:14.892Z,71.60
2018-11-27T15:09:51.118Z,70.60
2018-11-27T15:12:21.093Z,70.80
2018-11-27T15:14:51.134Z,70.40
2018-11-27T15:17:21.035Z,71.30
2018-11-27T15:19:51.013Z,71.50
2018-11-27T15:22:20.973Z,70.60
2018-11-27T15:24:50.966Z,70.90
2018-11-27T15:27:20.938Z,71.00
2018-11-27T15:29:50.838Z,72.10
2018-11-27T15:32:20.863Z,71.50
2018-11-27T15:34:50.833Z,73.10
2018-11-27T15:37:27.713Z,73.10
2018-11-27T15:39:58.775Z,73.10
2018-11-27T15:42:28.747Z,73.10
2018-11-27T15:44:58.772Z,73.40
2018-11-27T15:47:28.736Z,73.60
2018-11-27T15:49:58.671Z,73.30
2018-11-27T15:52:28.727Z,71.70
2018-11-27T15:54:58.720Z,73.70
2018-11-27T15:57:28.655Z,75.30
2018-11-27T15:59:58.674Z,74.80
2018-11-27T16:02:28.588Z,75.00
2018-11-27T16:04:58.586Z,74.40
2018-11-27T16:07:28.685Z,75.40
2018-11-27T16:09:58.583Z,74.60
2018-11-27T16:12:28.521Z,74.80
2018-11-27T16:14:58.469Z,74.50
2018-11-27T16:17:28.407Z,73.20
2018-11-27T16:19:58.403Z,73.80
2018-11-27T16:22:29.322Z,75.20
2018-11-27T16:24:59.318Z,74.80
2018-11-27T16:27:29.317Z,75.30
2018-11-27T16:29:59.242Z,74.90
2018-11-27T16:32:29.323Z,75.90
2018-11-27T16:34:59.285Z,76.10
2018-11-27T16:37:29.344Z,73.80
2018-11-27T16:39:59.329Z,74.50
2018-11-27T16:42:30.677Z,74.70
2018-11-27T16:44:59.215Z,74.90
2018-11-27T16:47:29.361Z,73.90
2018-11-27T16:49:59.314Z,74.30
2018-11-27T16:52:29.155Z,74.30
2018-11-27T16:54:59.122Z,73.50
2018-11-27T16:57:29.017Z,74.10
2018-11-27T16:59:58.925Z,74.10
2018-11-27T17:02:28.785Z,73.80
2018-11-27T17:04:59.962Z,73.00
2018-11-27T17:09:53.829Z,73.20
2018-11-27T17:12:23.740Z,74.50
2018-11-27T17:14:53.671Z,73.60
2018-11-27T17:17:23.787Z,73.70
2018-11-27T17:19:53.657Z,73.50
2018-11-27T17:22:23.550Z,73.30
2018-11-27T17:24:53.532Z,72.90
2018-11-27T17:27:23.396Z,73.10
2018-11-27T17:29:53.291Z,72.90
2018-11-27T17:32:23.240Z,73.00
2018-11-27T17:34:53.217Z,74.20
2018-11-27T17:37:23.115Z,74.70
2018-11-27T17:39:52.986Z,74.00
2018-11-27T17:42:23.105Z,75.30
2018-11-27T17:44:53.008Z,74.80
2018-11-27T17:47:22.922Z,75.40
2018-11-27T17:49:52.866Z,75.20
2018-11-27T17:52:22.797Z,74.10
2018-11-27T17:54:52.724Z,72.60
2018-11-27T17:57:22.617Z,71.80
2018-11-27T17:59:52.504Z,73.40
2018-11-27T18:02:22.429Z,71.80
2018-11-27T18:04:52.334Z,72.70
2018-11-27T18:07:22.259Z,72.50
2018-11-27T18:09:52.206Z,72.30
2018-11-27T18:12:22.228Z,73.40
2018-11-27T18:14:52.107Z,74.50
2018-11-27T18:17:22.154Z,74.80
2018-11-27T18:19:52.090Z,74.40
2018-11-27T18:22:22.175Z,74.70
2018-11-27T18:24:52.120Z,75.00
2018-11-27T18:27:22.051Z,75.20
2018-11-27T18:29:52.001Z,73.10
2018-11-27T18:32:21.931Z,72.50
2018-11-27T18:34:51.805Z,72.90
2018-11-27T18:37:21.852Z,74.60
2018-11-27T18:39:51.785Z,73.80
2018-11-27T18:42:21.725Z,73.70
2018-11-27T18:44:51.624Z,73.50
2018-11-27T18:47:21.583Z,73.20
2018-11-27T18:49:51.479Z,73.20
2018-11-27T18:52:21.440Z,72.70
2018-11-27T18:54:51.446Z,72.60
2018-11-27T18:57:21.362Z,73.10
2018-11-27T18:59:51.317Z,73.40
2018-11-27T19:02:21.257Z,73.30
2018-11-27T19:04:52.635Z,73.40
2018-11-27T19:07:22.602Z,73.90
2018-11-27T19:09:52.464Z,73.80
2018-11-27T19:12:22.404Z,72.50
2018-11-27T19:14:52.300Z,72.10
2018-11-27T19:17:22.352Z,72.40
2018-11-27T19:19:52.302Z,72.80
2018-11-27T19:22:22.266Z,73.00
2018-11-27T19:24:52.187Z,73.20
2018-11-27T19:27:22.307Z,72.10
2018-11-27T19:29:52.312Z,71.70
2018-11-27T19:32:22.291Z,72.30
2018-11-27T19:34:53.302Z,72.60
2018-11-27T19:37:23.338Z,72.40
2018-11-27T19:39:53.321Z,72.80
2018-11-27T19:42:23.260Z,72.70
2018-11-27T19:44:53.243Z,72.50
2018-11-27T19:47:23.291Z,71.00
2018-11-27T19:49:53.197Z,71.80
2018-11-27T19:52:23.305Z,71.30
2018-11-27T19:54:53.326Z,71.00
2018-11-27T19:57:23.317Z,71.50
2018-11-27T19:59:53.233Z,72.20
2018-11-27T20:02:23.178Z,72.40
2018-11-27T20:04:53.104Z,71.70
2018-11-27T20:07:23.022Z,70.70
2018-11-27T20:09:52.911Z,70.20
2018-11-27T20:12:22.828Z,70.40
2018-11-27T20:14:52.769Z,70.50
2018-11-27T20:17:22.694Z,71.10
2018-11-27T20:19:52.606Z,71.10
2018-11-27T20:22:22.528Z,71.50
2018-11-27T20:24:52.412Z,70.80
2018-11-27T20:27:22.448Z,70.40
2018-11-27T20:29:52.353Z,71.10
2018-11-27T20:32:22.244Z,70.90
2018-11-27T20:34:52.207Z,69.90
2018-11-27T20:37:22.129Z,70.20
2018-11-27T20:39:52.135Z,70.60
2018-11-27T20:42:22.360Z,70.60
2018-11-27T20:44:52.346Z,70.00
2018-11-27T20:47:22.226Z,70.50
2018-11-27T20:49:52.216Z,70.80
2018-11-27T20:52:22.271Z,71.30
2018-11-27T20:54:52.434Z,71.20
2018-11-27T20:57:22.399Z,71.20
2018-11-27T20:59:52.500Z,71.60
2018-11-27T21:02:22.543Z,71.90
2018-11-27T21:04:53.791Z,72.00
2018-11-27T21:07:24.048Z,72.10
2018-11-27T21:09:54.093Z,72.40
2018-11-27T21:12:23.973Z,72.50
2018-11-27T21:14:53.940Z,72.50
2018-11-27T21:17:23.836Z,71.20
2018-11-27T21:19:53.748Z,70.30
2018-11-27T21:22:23.758Z,71.00
2018-11-27T21:24:53.685Z,72.40
2018-11-27T21:27:23.598Z,72.70
2018-11-27T21:29:53.571Z,73.10
2018-11-27T21:32:24.065Z,73.20
2018-11-27T21:34:54.050Z,73.50
2018-11-27T21:37:23.987Z,73.60
2018-11-27T21:39:53.859Z,73.80
2018-11-27T21:42:23.738Z,74.00
2018-11-27T21:45:57.052Z,73.80
2018-11-27T21:48:26.989Z,74.20
2018-11-27T21:51:00.615Z,74.50
2018-11-27T21:53:30.809Z,74.30
2018-11-27T21:56:00.715Z,75.40
2018-11-27T21:58:30.608Z,74.70
2018-11-27T22:01:00.470Z,75.00
2018-11-27T22:03:30.389Z,74.80
2018-11-27T22:06:00.741Z,75.00
2018-11-27T22:08:30.647Z,75.30
2018-11-27T22:11:00.557Z,75.30
2018-11-27T22:13:30.427Z,75.30
2018-11-27T22:16:00.334Z,75.80
2018-11-27T22:18:30.257Z,76.60
2018-11-27T22:21:00.250Z,77.00
2018-11-27T22:23:30.121Z,76.70
2018-11-27T22:26:06.663Z,76.90
2018-11-27T22:28:36.524Z,77.30
2018-11-27T22:31:06.969Z,78.30
2018-11-27T22:33:36.887Z,77.80
2018-11-27T22:36:06.796Z,77.50
2018-11-27T22:38:36.691Z,79.20
2018-11-27T22:41:06.845Z,80.30
2018-11-27T22:43:36.790Z,80.40
2018-11-27T22:46:07.217Z,80.40
2018-11-27T22:48:37.109Z,81.20
2018-11-27T22:51:07.010Z,81.20
2018-11-27T22:53:36.873Z,80.20
2018-11-27T22:56:07.025Z,80.10
2018-11-27T22:58:36.929Z,79.00
2018-11-27T23:01:06.931Z,78.70
2018-11-27T23:03:36.812Z,78.90
2018-11-27T23:06:06.684Z,81.80
2018-11-27T23:08:36.585Z,81.00
2018-11-27T23:11:06.685Z,81.20
2018-11-27T23:13:36.676Z,82.70
2018-11-27T23:16:07.203Z,83.00
2018-11-27T23:18:37.101Z,83.30
2018-11-27T23:21:07.008Z,83.80
2018-11-27T23:23:36.860Z,83.00
2018-11-27T23:26:06.914Z,82.80
2018-11-27T23:28:36.799Z,82.80
2018-11-27T23:31:06.666Z,83.00
2018-11-27T23:33:36.617Z,83.40
2018-11-27T23:36:06.970Z,83.20
2018-11-27T23:38:36.936Z,83.40
2018-11-27T23:41:06.998Z,83.00
2018-11-27T23:43:36.862Z,83.70
2018-11-27T23:46:07.858Z,83.60
2018-11-27T23:48:37.753Z,83.70
2018-11-27T23:51:07.838Z,81.40
2018-11-27T23:53:37.693Z,82.20
2018-11-27T23:56:07.664Z,82.60
2018-11-27T23:58:38.638Z,83.60
